Time;durP1;ratioP1;P1;durP2;ratioP2;P2;SDS_P1;SDS_P2;PMS_P1;PMS_P2;Temp;Humidity;BMP_temperature;BMP_pressure;BME280_temperature;BME280_humidity;BME280_pressure;Samples;Min_cycle;Max_cycle;Signal;HPM_P1;HPM_P2
2023/06/01 00:00:38;;;;;;;0.50;0.50;;;;;;;;;;5116776;28;20253;-94
2023/06/01 00:03:04;;;;;;;0.40;0.40;;;;;;;;;;5113947;28;20181;-90
2023/06/01 00:05:30;;;;;;;0.50;0.50;;;;;;;;;;5100724;28;20243;-90
2023/06/01 00:07:56;;;;;;;0.50;0.50;;;;;;;;;;5095286;28;20640;-90
2023/06/01 00:10:23;;;;;;;0.40;0.40;;;;;;;;;;5094283;28;20201;-90
2023/06/01 00:12:49;;;;;;;0.40;0.40;;;;;;;;;;5094735;28;20178;-90
2023/06/01 00:15:17;;;;;;;0.43;0.43;;;;;;;;;;5093839;28;20546;-90
2023/06/01 00:17:43;;;;;;;0.60;0.60;;;;;;;;;;5093807;28;20237;-90
2023/06/01 00:20:10;;;;;;;0.40;0.40;;;;;;;;;;5096618;28;20193;-90
2023/06/01 00:22:38;;;;;;;0.40;0.40;;;;;;;;;;5095752;28;20636;-89
2023/06/01 00:25:06;;;;;;;0.60;0.60;;;;;;;;;;5097415;28;20178;-89
2023/06/01 00:27:35;;;;;;;0.43;0.43;;;;;;;;;;5090556;28;20177;-89
2023/06/01 00:30:04;;;;;;;0.50;0.50;;;;;;;;;;5111704;28;20228;-90
2023/06/01 00:32:33;;;;;;;0.50;0.50;;;;;;;;;;5118050;28;20231;-91
2023/06/01 00:34:59;;;;;;;0.50;0.50;;;;;;;;;;5117403;28;20198;-91
2023/06/01 00:37:26;;;;;;;0.40;0.40;;;;;;;;;;5117809;28;20189;-91
2023/06/01 00:39:52;;;;;;;0.60;0.60;;;;;;;;;;5117141;28;20174;-92
2023/06/01 00:42:18;;;;;;;0.70;0.70;;;;;;;;;;5116989;28;20192;-90
2023/06/01 00:44:44;;;;;;;0.60;0.60;;;;;;;;;;5103306;28;20189;-89
2023/06/01 00:47:10;;;;;;;0.60;0.60;;;;;;;;;;5097755;28;20181;-88
2023/06/01 00:49:36;;;;;;;0.50;0.50;;;;;;;;;;5101488;28;20198;-90
2023/06/01 00:52:02;;;;;;;0.60;0.60;;;;;;;;;;5097489;28;20193;-89
2023/06/01 00:54:29;;;;;;;0.47;0.47;;;;;;;;;;5102966;28;20170;-89
2023/06/01 00:56:55;;;;;;;0.40;0.40;;;;;;;;;;5101055;28;20229;-89
2023/06/01 00:59:21;;;;;;;0.57;0.57;;;;;;;;;;5100033;28;20227;-88
2023/06/01 01:01:47;;;;;;;0.60;0.60;;;;;;;;;;5101890;28;20182;-89
2023/06/01 01:04:14;;;;;;;0.60;0.60;;;;;;;;;;5102359;28;20192;-90
2023/06/01 01:06:56;;;;;;;0.50;0.50;;;;;;;;;;5100935;28;20276;-88
2023/06/01 01:09:29;;;;;;;0.50;0.50;;;;;;;;;;5112807;28;20200;-89
2023/06/01 01:12:00;;;;;;;0.50;0.50;;;;;;;;;;5113854;28;20245;-88
2023/06/01 01:14:38;;;;;;;0.60;0.60;;;;;;;;;;5114597;28;20166;-89
2023/06/01 01:17:14;;;;;;;0.57;0.57;;;;;;;;;;5115197;28;20205;-89
2023/06/01 01:19:50;;;;;;;0.50;0.50;;;;;;;;;;5114185;28;20295;-90
2023/06/01 01:22:20;;;;;;;0.80;0.80;;;;;;;;;;5113887;28;20177;-90
2023/06/01 01:25:09;;;;;;;0.60;0.60;;;;;;;;;;5112206;28;20162;-89
2023/06/01 01:27:51;;;;;;;0.50;0.50;;;;;;;;;;5112303;28;20188;-89
2023/06/01 01:30:21;;;;;;;0.60;0.60;;;;;;;;;;5119066;28;20257;-90
2023/06/01 01:32:47;;;;;;;0.50;0.50;;;;;;;;;;5119939;28;20162;-91
2023/06/01 01:35:13;;;;;;;0.60;0.60;;;;;;;;;;5119800;28;20172;-91
2023/06/01 01:37:51;;;;;;;0.50;0.50;;;;;;;;;;5119541;28;20207;-90
2023/06/01 01:40:17;;;;;;;0.50;0.50;;;;;;;;;;5100642;28;20228;-89
2023/06/01 01:42:43;;;;;;;0.63;0.63;;;;;;;;;;5099277;28;20173;-89
2023/06/01 01:45:09;;;;;;;0.60;0.60;;;;;;;;;;5099023;28;20189;-89
2023/06/01 01:47:37;;;;;;;0.60;0.60;;;;;;;;;;5097654;28;20178;-89
2023/06/01 01:50:05;;;;;;;0.50;0.50;;;;;;;;;;5098551;28;20197;-89
2023/06/01 01:52:34;;;;;;;0.60;0.60;;;;;;;;;;5099189;28;20198;-89
2023/06/01 01:55:01;;;;;;;0.50;0.50;;;;;;;;;;5098399;28;20656;-89
2023/06/01 01:57:28;;;;;;;0.70;0.70;;;;;;;;;;5098080;28;20248;-89
2023/06/01 01:59:55;;;;;;;0.50;0.50;;;;;;;;;;5098533;28;20190;-89
2023/06/01 02:02:21;;;;;;;0.57;0.57;;;;;;;;;;5098206;28;20265;-90
2023/06/01 02:04:47;;;;;;;0.50;0.50;;;;;;;;;;5097821;28;20181;-89
2023/06/01 02:07:13;;;;;;;0.60;0.60;;;;;;;;;;5097288;28;20550;-89
2023/06/01 02:09:40;;;;;;;0.50;0.50;;;;;;;;;;5097419;28;20190;-89
2023/06/01 02:12:06;;;;;;;0.50;0.50;;;;;;;;;;5098232;28;20650;-89
2023/06/01 02:14:32;;;;;;;0.60;0.60;;;;;;;;;;5098308;28;20552;-89
2023/06/01 02:17:00;;;;;;;0.40;0.40;;;;;;;;;;5097477;28;20573;-89
2023/06/01 02:19:26;;;;;;;0.60;0.60;;;;;;;;;;5096626;28;20176;-89
2023/06/01 02:21:53;;;;;;;0.50;0.50;;;;;;;;;;5097007;28;20184;-89
2023/06/01 02:24:19;;;;;;;0.70;0.70;;;;;;;;;;5100248;28;20182;-89
2023/06/01 02:26:55;;;;;;;0.60;0.60;;;;;;;;;;5108583;28;20182;-89
2023/06/01 02:29:22;;;;;;;0.60;0.60;;;;;;;;;;5109161;28;20229;-88
2023/06/01 02:31:49;;;;;;;0.50;0.50;;;;;;;;;;5109484;28;20188;-90
2023/06/01 02:34:16;;;;;;;0.70;0.70;;;;;;;;;;5114545;28;20197;-91
2023/06/01 02:36:42;;;;;;;0.60;0.60;;;;;;;;;;5117876;28;20225;-92
2023/06/01 02:39:09;;;;;;;0.60;0.60;;;;;;;;;;5117473;28;20161;-92
2023/06/01 02:41:35;;;;;;;0.50;0.50;;;;;;;;;;5112636;28;20257;-89
2023/06/01 02:44:02;;;;;;;0.50;0.50;;;;;;;;;;5108322;28;20177;-89
2023/06/01 02:46:28;;;;;;;0.70;0.70;;;;;;;;;;5099759;28;20177;-88
2023/06/01 02:48:55;;;;;;;0.60;0.60;;;;;;;;;;5097401;28;20201;-89
2023/06/01 02:51:21;;;;;;;0.60;0.60;;;;;;;;;;5097493;28;20267;-89
2023/06/01 02:53:47;;;;;;;0.50;0.50;;;;;;;;;;5099263;28;20182;-89
2023/06/01 02:56:14;;;;;;;0.50;0.50;;;;;;;;;;5097282;28;20198;-89
2023/06/01 02:58:41;;;;;;;0.60;0.60;;;;;;;;;;5096778;28;20205;-89
2023/06/01 03:01:11;;;;;;;0.63;0.63;;;;;;;;;;5079742;28;20206;-89
2023/06/01 03:03:37;;;;;;;0.50;0.50;;;;;;;;;;5105725;28;20178;-89
2023/06/01 03:06:05;;;;;;;0.50;0.50;;;;;;;;;;5110160;28;20172;-91
2023/06/01 03:08:31;;;;;;;0.50;0.50;;;;;;;;;;5086705;28;20174;-90
2023/06/01 03:10:57;;;;;;;0.60;0.60;;;;;;;;;;5076654;28;20201;-89
2023/06/01 03:13:23;;;;;;;0.60;0.60;;;;;;;;;;5090752;28;20167;-91
2023/06/01 03:15:50;;;;;;;0.53;0.53;;;;;;;;;;5096841;28;20166;-91
2023/06/01 03:18:16;;;;;;;0.60;0.60;;;;;;;;;;5095862;28;20202;-90
2023/06/01 03:20:42;;;;;;;0.50;0.50;;;;;;;;;;5083260;28;20201;-89
2023/06/01 03:23:08;;;;;;;0.50;0.50;;;;;;;;;;5077965;28;20182;-89
2023/06/01 03:25:34;;;;;;;0.63;0.63;;;;;;;;;;5074764;28;20174;-89
2023/06/01 03:28:00;;;;;;;0.50;0.50;;;;;;;;;;5074093;28;20201;-89
2023/06/01 03:30:27;;;;;;;0.60;0.60;;;;;;;;;;5076913;28;20280;-89
2023/06/01 03:32:53;;;;;;;0.43;0.43;;;;;;;;;;5076822;28;20208;-89
2023/06/01 03:35:19;;;;;;;0.57;0.57;;;;;;;;;;5081882;28;20661;-89
2023/06/01 03:37:46;;;;;;;0.60;0.60;;;;;;;;;;5094602;28;20206;-91
2023/06/01 03:40:12;;;;;;;0.60;0.60;;;;;;;;;;5096271;28;20193;-90
2023/06/01 03:42:39;;;;;;;0.50;0.50;;;;;;;;;;5093245;28;20186;-89
2023/06/01 03:45:05;;;;;;;0.53;0.53;;;;;;;;;;5073600;28;20623;-88
2023/06/01 03:47:31;;;;;;;0.50;0.50;;;;;;;;;;5073619;28;20179;-88
2023/06/01 03:49:58;;;;;;;0.60;0.60;;;;;;;;;;5073840;28;20255;-89
2023/06/01 03:52:24;;;;;;;0.70;0.70;;;;;;;;;;5077644;28;20219;-88
2023/06/01 03:54:51;;;;;;;0.50;0.50;;;;;;;;;;5076917;28;20170;-89
2023/06/01 03:57:17;;;;;;;0.60;0.60;;;;;;;;;;5072656;28;20203;-89
2023/06/01 03:59:43;;;;;;;0.50;0.50;;;;;;;;;;5073675;28;20210;-88
2023/06/01 04:02:09;;;;;;;0.60;0.60;;;;;;;;;;5073283;28;20186;-89
2023/06/01 04:04:35;;;;;;;0.60;0.60;;;;;;;;;;5073541;28;20189;-89
2023/06/01 04:07:03;;;;;;;0.50;0.50;;;;;;;;;;5074499;28;20182;-91
2023/06/01 04:09:30;;;;;;;0.57;0.57;;;;;;;;;;5074246;28;20183;-89
2023/06/01 04:11:56;;;;;;;0.50;0.50;;;;;;;;;;5073089;28;20274;-89
2023/06/01 04:14:22;;;;;;;0.67;0.67;;;;;;;;;;5073271;28;20174;-90
2023/06/01 04:16:48;;;;;;;0.53;0.53;;;;;;;;;;5073769;28;20218;-89
2023/06/01 04:19:14;;;;;;;0.50;0.50;;;;;;;;;;5073239;28;20166;-91
2023/06/01 04:21:41;;;;;;;0.53;0.53;;;;;;;;;;5073406;28;20198;-89
2023/06/01 04:24:07;;;;;;;0.60;0.60;;;;;;;;;;5057136;28;20171;-89
2023/06/01 04:26:33;;;;;;;0.50;0.50;;;;;;;;;;5076621;28;20521;-89
2023/06/01 04:28:59;;;;;;;0.60;0.60;;;;;;;;;;5076428;28;20641;-89
2023/06/01 04:31:25;;;;;;;0.40;0.40;;;;;;;;;;5078672;28;20198;-91
2023/06/01 04:33:56;;;;;;;0.63;0.63;;;;;;;;;;5082268;28;20181;-90
2023/06/01 04:36:22;;;;;;;0.50;0.50;;;;;;;;;;5080161;28;20803;-91
2023/06/01 04:38:54;;;;;;;0.50;0.50;;;;;;;;;;5080604;28;20166;-89
2023/06/01 04:41:28;;;;;;;0.43;0.43;;;;;;;;;;5078314;28;20199;-90
2023/06/01 04:43:54;;;;;;;0.50;0.50;;;;;;;;;;5079769;28;20227;-91
2023/06/01 04:46:23;;;;;;;0.50;0.50;;;;;;;;;;5079156;28;20190;-89
2023/06/01 04:48:51;;;;;;;0.70;0.70;;;;;;;;;;5080096;28;20174;-90
2023/06/01 04:51:19;;;;;;;0.50;0.50;;;;;;;;;;5079024;28;20206;-90
2023/06/01 04:53:58;;;;;;;0.50;0.50;;;;;;;;;;5079778;28;20174;-89
2023/06/01 04:56:28;;;;;;;0.63;0.63;;;;;;;;;;5081543;28;20536;-91
2023/06/01 04:58:55;;;;;;;0.50;0.50;;;;;;;;;;5099320;28;20177;-91
2023/06/01 05:01:25;;;;;;;0.40;0.40;;;;;;;;;;5082057;28;20274;-90
2023/06/01 05:03:52;;;;;;;0.50;0.50;;;;;;;;;;5084452;28;20167;-89
2023/06/01 05:06:18;;;;;;;0.50;0.50;;;;;;;;;;5079303;28;20182;-89
2023/06/01 05:08:45;;;;;;;0.40;0.40;;;;;;;;;;5077582;28;20178;-89
2023/06/01 05:11:11;;;;;;;0.60;0.60;;;;;;;;;;5078609;28;20195;-89
2023/06/01 05:13:39;;;;;;;0.50;0.50;;;;;;;;;;5080444;28;20174;-90
2023/06/01 05:16:06;;;;;;;0.63;0.63;;;;;;;;;;5077599;28;20790;-89
2023/06/01 05:18:33;;;;;;;0.40;0.40;;;;;;;;;;5078819;28;20308;-89
2023/06/01 05:20:59;;;;;;;0.50;0.50;;;;;;;;;;5078563;28;20190;-91
2023/06/01 05:23:26;;;;;;;0.50;0.50;;;;;;;;;;5078110;28;20171;-90
2023/06/01 05:25:54;;;;;;;0.43;0.43;;;;;;;;;;5078860;28;20170;-90
2023/06/01 05:28:20;;;;;;;0.60;0.60;;;;;;;;;;5078071;28;20491;-90
2023/06/01 05:30:47;;;;;;;0.53;0.53;;;;;;;;;;5077354;28;20190;-90
2023/06/01 05:33:13;;;;;;;0.60;0.60;;;;;;;;;;5077511;28;20552;-90
2023/06/01 05:35:39;;;;;;;0.50;0.50;;;;;;;;;;5077163;28;20701;-89
2023/06/01 05:38:05;;;;;;;0.63;0.63;;;;;;;;;;5077131;28;20642;-90
2023/06/01 05:40:31;;;;;;;0.60;0.60;;;;;;;;;;5056826;28;20194;-90
2023/06/01 05:42:57;;;;;;;0.40;0.40;;;;;;;;;;5076475;28;20187;-90
2023/06/01 05:45:23;;;;;;;0.60;0.60;;;;;;;;;;5076089;28;20262;-89
2023/06/01 05:47:49;;;;;;;0.40;0.40;;;;;;;;;;5077169;28;20174;-88
2023/06/01 05:50:16;;;;;;;0.50;0.50;;;;;;;;;;5076452;28;20195;-89
2023/06/01 05:52:42;;;;;;;0.60;0.60;;;;;;;;;;5078193;28;20265;-86
2023/06/01 05:55:09;;;;;;;0.40;0.40;;;;;;;;;;5078040;28;20208;-89
2023/06/01 05:57:35;;;;;;;0.40;0.40;;;;;;;;;;5076702;28;20214;-87
2023/06/01 06:00:01;;;;;;;0.47;0.47;;;;;;;;;;5077246;28;20199;-86
2023/06/01 06:02:27;;;;;;;0.40;0.40;;;;;;;;;;5077019;28;20638;-90
2023/06/01 06:04:53;;;;;;;0.40;0.40;;;;;;;;;;5076474;28;20190;-88
2023/06/01 06:07:19;;;;;;;0.47;0.47;;;;;;;;;;5078231;28;20179;-88
2023/06/01 06:09:45;;;;;;;0.40;0.40;;;;;;;;;;5075404;28;20285;-87
2023/06/01 06:12:11;;;;;;;0.40;0.40;;;;;;;;;;5078322;28;20182;-87
2023/06/01 06:14:37;;;;;;;0.40;0.40;;;;;;;;;;5076941;28;20716;-89
2023/06/01 06:17:03;;;;;;;0.40;0.40;;;;;;;;;;5074017;28;20680;-89
2023/06/01 06:19:29;;;;;;;0.30;0.30;;;;;;;;;;5076589;28;20182;-88
2023/06/01 06:21:55;;;;;;;0.50;0.50;;;;;;;;;;5076595;28;20184;-89
2023/06/01 06:24:21;;;;;;;0.47;0.47;;;;;;;;;;5079481;28;20182;-90
2023/06/01 06:26:47;;;;;;;0.57;0.57;;;;;;;;;;5070597;28;20175;-89
2023/06/01 06:29:13;;;;;;;0.30;0.30;;;;;;;;;;5066668;28;20497;-89
2023/06/01 06:31:39;;;;;;;0.40;0.40;;;;;;;;;;5054321;28;20174;-89
2023/06/01 06:34:05;;;;;;;0.40;0.40;;;;;;;;;;5074885;28;20185;-89
2023/06/01 06:36:31;;;;;;;0.50;0.50;;;;;;;;;;5084674;28;20202;-90
2023/06/01 06:38:58;;;;;;;0.30;0.30;;;;;;;;;;5076223;28;20175;-90
2023/06/01 06:41:24;;;;;;;0.30;0.30;;;;;;;;;;5067703;28;20545;-90
2023/06/01 06:43:50;;;;;;;0.43;0.43;;;;;;;;;;5069141;28;20175;-86
2023/06/01 06:46:16;;;;;;;0.40;0.40;;;;;;;;;;5067518;28;20593;-86
2023/06/01 06:48:42;;;;;;;0.50;0.50;;;;;;;;;;5059463;28;20584;-87
2023/06/01 06:51:08;;;;;;;0.50;0.50;;;;;;;;;;5075532;28;20228;-88
2023/06/01 06:53:34;;;;;;;0.40;0.40;;;;;;;;;;5077737;28;20190;-88
2023/06/01 06:56:01;;;;;;;0.50;0.50;;;;;;;;;;5075979;28;20178;-89
2023/06/01 06:58:27;;;;;;;0.40;0.40;;;;;;;;;;5074666;28;20243;-89
2023/06/01 07:00:53;;;;;;;0.40;0.40;;;;;;;;;;5073922;28;20198;-88
2023/06/01 07:03:19;;;;;;;0.30;0.30;;;;;;;;;;5075888;28;20629;-89
2023/06/01 07:05:45;;;;;;;0.30;0.30;;;;;;;;;;5075261;28;20253;-88
2023/06/01 07:08:11;;;;;;;0.30;0.30;;;;;;;;;;5077545;28;20178;-87
2023/06/01 07:13:03;;;;;;;0.33;0.33;;;;;;;;;;5081445;22;20229;-86
2023/06/01 07:15:29;;;;;;;0.30;0.30;;;;;;;;;;5083031;28;20263;-86
2023/06/01 07:17:55;;;;;;;0.30;0.30;;;;;;;;;;5083998;28;20214;-88
2023/06/01 07:20:21;;;;;;;0.30;0.30;;;;;;;;;;5085044;28;20217;-86
2023/06/01 07:22:49;;;;;;;0.30;0.30;;;;;;;;;;5093996;28;20200;-86
2023/06/01 07:25:15;;;;;;;0.40;0.40;;;;;;;;;;5093899;28;20179;-86
2023/06/01 07:27:43;;;;;;;0.37;0.37;;;;;;;;;;5092016;28;20190;-85
2023/06/01 07:30:10;;;;;;;0.30;0.30;;;;;;;;;;5089964;28;20198;-86
2023/06/01 07:32:36;;;;;;;0.30;0.30;;;;;;;;;;5091286;28;20178;-86
2023/06/01 07:35:04;;;;;;;0.40;0.40;;;;;;;;;;5095715;28;20222;-86
2023/06/01 07:37:31;;;;;;;0.30;0.30;;;;;;;;;;5079384;28;20198;-86
2023/06/01 07:39:57;;;;;;;0.20;0.20;;;;;;;;;;5094375;28;20186;-86
2023/06/01 07:42:23;;;;;;;0.30;0.30;;;;;;;;;;5095774;28;20171;-85
2023/06/01 07:44:50;;;;;;;0.30;0.30;;;;;;;;;;5095014;28;20167;-86
2023/06/01 07:47:16;;;;;;;0.20;0.20;;;;;;;;;;5079238;28;20174;-85
2023/06/01 07:49:42;;;;;;;0.33;0.33;;;;;;;;;;5075283;28;20252;-86
2023/06/01 07:52:08;;;;;;;0.20;0.20;;;;;;;;;;5077802;28;20208;-87
2023/06/01 07:54:38;;;;;;;0.23;0.23;;;;;;;;;;5094938;28;20162;-88
2023/06/01 07:57:04;;;;;;;0.30;0.30;;;;;;;;;;5096359;28;20212;-91
2023/06/01 07:59:33;;;;;;;0.30;0.30;;;;;;;;;;5087373;28;20190;-86
2023/06/01 08:02:00;;;;;;;0.30;0.30;;;;;;;;;;5057400;28;20604;-86
2023/06/01 08:04:33;;;;;;;0.40;0.40;;;;;;;;;;5075080;28;20205;-86
2023/06/01 08:06:59;;;;;;;0.30;0.30;;;;;;;;;;5061357;28;20198;-87
2023/06/01 08:09:25;;;;;;;0.40;0.40;;;;;;;;;;5076280;28;20178;-87
2023/06/01 08:11:53;;;;;;;0.33;0.33;;;;;;;;;;5072960;28;20202;-88
2023/06/01 08:14:19;;;;;;;0.33;0.33;;;;;;;;;;5076804;28;20290;-91
2023/06/01 08:16:47;;;;;;;0.40;0.40;;;;;;;;;;5078367;28;20237;-90
2023/06/01 08:19:15;;;;;;;0.50;0.50;;;;;;;;;;5087334;28;20258;-92
2023/06/01 08:21:41;;;;;;;0.30;0.30;;;;;;;;;;5072860;28;20181;-88
2023/06/01 08:24:11;;;;;;;0.40;0.40;;;;;;;;;;5079145;28;20590;-86
2023/06/01 08:26:37;;;;;;;0.40;0.40;;;;;;;;;;5075944;28;20182;-84
2023/06/01 08:29:03;;;;;;;0.40;0.40;;;;;;;;;;5057916;28;20178;-83
2023/06/01 08:31:29;;;;;;;0.37;0.37;;;;;;;;;;5077157;28;20198;-83
2023/06/01 08:33:56;;;;;;;0.30;0.30;;;;;;;;;;5077851;28;20189;-83
2023/06/01 08:36:22;;;;;;;0.40;0.40;;;;;;;;;;5076248;28;20205;-84
2023/06/01 08:38:49;;;;;;;0.40;0.40;;;;;;;;;;5076219;28;20521;-83
2023/06/01 08:41:42;;;;;;;0.40;0.40;;;;;;;;;;5076664;28;20220;-83
2023/06/01 08:44:08;;;;;;;0.50;0.50;;;;;;;;;;5071992;28;20209;-84
2023/06/01 08:46:34;;;;;;;0.30;0.30;;;;;;;;;;5077345;28;20630;-82
2023/06/01 08:49:01;;;;;;;0.50;0.50;;;;;;;;;;5075312;28;20178;-82
2023/06/01 08:51:28;;;;;;;0.60;0.60;;;;;;;;;;5076197;28;20195;-83
2023/06/01 08:53:55;;;;;;;0.50;0.50;;;;;;;;;;5077423;28;20182;-85
2023/06/01 08:56:22;;;;;;;0.50;0.50;;;;;;;;;;5074507;28;20770;-84
2023/06/01 08:58:48;;;;;;;0.30;0.30;;;;;;;;;;5075520;28;20201;-83
2023/06/01 09:01:18;;;;;;;0.40;0.40;;;;;;;;;;5075247;28;20226;-82
2023/06/01 09:03:44;;;;;;;0.40;0.40;;;;;;;;;;5057754;28;20665;-84
2023/06/01 09:06:10;;;;;;;0.53;0.53;;;;;;;;;;5086583;28;20167;-82
2023/06/01 09:08:37;;;;;;;0.40;0.40;;;;;;;;;;5092997;28;20159;-84
2023/06/01 09:11:03;;;;;;;0.43;0.43;;;;;;;;;;5076346;28;20217;-84
2023/06/01 09:13:36;;;;;;;0.50;0.50;;;;;;;;;;5079463;28;20175;-83
2023/06/01 09:16:02;;;;;;;0.50;0.50;;;;;;;;;;5081947;28;20178;-83
2023/06/01 09:18:28;;;;;;;0.33;0.33;;;;;;;;;;5080044;28;20236;-83
2023/06/01 09:20:56;;;;;;;0.50;0.50;;;;;;;;;;5081714;28;20190;-82
2023/06/01 09:23:29;;;;;;;0.50;0.50;;;;;;;;;;5079421;28;20179;-83
2023/06/01 09:26:08;;;;;;;0.47;0.47;;;;;;;;;;5079506;28;20179;-83
2023/06/01 09:28:54;;;;;;;0.43;0.43;;;;;;;;;;5079472;28;20176;-84
2023/06/01 09:31:49;;;;;;;0.45;0.45;;;;;;;;;;5078732;28;20205;-82
2023/06/01 09:34:18;;;;;;;0.40;0.40;;;;;;;;;;5050218;28;20198;-81
2023/06/01 09:36:44;;;;;;;0.53;0.53;;;;;;;;;;5083726;28;20260;-81
2023/06/01 09:39:11;;;;;;;0.30;0.30;;;;;;;;;;5080363;28;20637;-81
2023/06/01 09:41:58;;;;;;;0.40;0.40;;;;;;;;;;5096074;28;20228;-82
2023/06/01 09:44:24;;;;;;;0.50;0.50;;;;;;;;;;5098471;28;20182;-82
2023/06/01 09:46:52;;;;;;;0.57;0.57;;;;;;;;;;5101387;28;20227;-83
2023/06/01 09:49:21;;;;;;;0.50;0.50;;;;;;;;;;5099758;28;20187;-83
2023/06/01 09:51:47;;;;;;;0.40;0.40;;;;;;;;;;5090412;28;20186;-84
2023/06/01 09:54:23;;;;;;;0.60;0.60;;;;;;;;;;5073485;28;20257;-83
2023/06/01 09:56:49;;;;;;;0.40;0.40;;;;;;;;;;5078357;28;20210;-85
2023/06/01 09:59:16;;;;;;;0.50;0.50;;;;;;;;;;5090026;28;20565;-83
2023/06/01 10:01:42;;;;;;;0.60;0.60;;;;;;;;;;5078957;28;20198;-85
2023/06/01 10:04:09;;;;;;;0.60;0.60;;;;;;;;;;5083853;28;20249;-84
2023/06/01 10:06:39;;;;;;;0.50;0.50;;;;;;;;;;5082702;28;20182;-85
2023/06/01 10:09:07;;;;;;;0.40;0.40;;;;;;;;;;5089013;28;20707;-85
2023/06/01 10:11:33;;;;;;;0.40;0.40;;;;;;;;;;5096239;28;20214;-83
2023/06/01 10:14:00;;;;;;;0.50;0.50;;;;;;;;;;5092495;28;20178;-84
2023/06/01 10:16:26;;;;;;;0.40;0.40;;;;;;;;;;5077486;28;20204;-84
2023/06/01 10:18:52;;;;;;;0.60;0.60;;;;;;;;;;5094109;28;20232;-83
2023/06/01 10:21:19;;;;;;;0.43;0.43;;;;;;;;;;5088848;28;20194;-83
2023/06/01 10:23:45;;;;;;;0.60;0.60;;;;;;;;;;5085187;28;20578;-83
2023/06/01 10:26:14;;;;;;;0.40;0.40;;;;;;;;;;5072125;28;20187;-83
2023/06/01 10:28:41;;;;;;;0.50;0.50;;;;;;;;;;5084331;28;20201;-83
2023/06/01 10:31:25;;;;;;;0.60;0.60;;;;;;;;;;5080700;28;20274;-84
2023/06/01 10:33:55;;;;;;;0.53;0.53;;;;;;;;;;5075819;28;20228;-82
2023/06/01 10:36:21;;;;;;;0.50;0.50;;;;;;;;;;5076988;28;20185;-84
2023/06/01 10:38:48;;;;;;;0.40;0.40;;;;;;;;;;5061666;28;20190;-84
2023/06/01 10:41:28;;;;;;;0.57;0.57;;;;;;;;;;5075302;28;20255;-83
2023/06/01 10:43:55;;;;;;;0.43;0.43;;;;;;;;;;5078708;28;20186;-82
2023/06/01 10:46:37;;;;;;;0.50;0.50;;;;;;;;;;5079313;28;20204;-83
2023/06/01 10:49:04;;;;;;;0.40;0.40;;;;;;;;;;5082204;28;20193;-84
2023/06/01 10:51:30;;;;;;;0.60;0.60;;;;;;;;;;5083106;28;20202;-82
2023/06/01 10:54:16;;;;;;;0.50;0.50;;;;;;;;;;5081711;28;20182;-83
2023/06/01 10:56:42;;;;;;;0.60;0.60;;;;;;;;;;5081201;28;20221;-82
2023/06/01 10:59:08;;;;;;;0.47;0.47;;;;;;;;;;5083881;28;20198;-82
2023/06/01 11:01:35;;;;;;;0.50;0.50;;;;;;;;;;5079091;28;20305;-83
2023/06/01 11:04:01;;;;;;;0.40;0.40;;;;;;;;;;5080435;28;20182;-82
2023/06/01 11:06:33;;;;;;;0.50;0.50;;;;;;;;;;5081652;28;20202;-83
2023/06/01 11:09:00;;;;;;;0.50;0.50;;;;;;;;;;5078676;28;20320;-83
2023/06/01 11:11:46;;;;;;;0.37;0.37;;;;;;;;;;5077463;28;20217;-82
2023/06/01 11:14:12;;;;;;;0.60;0.60;;;;;;;;;;5081651;28;20179;-82
2023/06/01 11:16:38;;;;;;;0.60;0.60;;;;;;;;;;5088011;28;20586;-82
2023/06/01 11:19:06;;;;;;;0.50;0.50;;;;;;;;;;5078669;28;20219;-80
2023/06/01 11:21:39;;;;;;;0.50;0.50;;;;;;;;;;5058800;28;20296;-82
2023/06/01 11:24:16;;;;;;;0.60;0.60;;;;;;;;;;5057861;28;20173;-82
2023/06/01 11:26:43;;;;;;;0.40;0.40;;;;;;;;;;5077569;28;20257;-83
2023/06/01 11:29:11;;;;;;;0.50;0.50;;;;;;;;;;5075743;28;20352;-83
2023/06/01 11:31:41;;;;;;;0.50;0.50;;;;;;;;;;5074423;28;20244;-83
2023/06/01 11:34:08;;;;;;;0.60;0.60;;;;;;;;;;5076028;28;20304;-82
2023/06/01 11:36:37;;;;;;;0.40;0.40;;;;;;;;;;5076137;28;20185;-82
2023/06/01 11:39:07;;;;;;;0.50;0.50;;;;;;;;;;5074840;28;20201;-82
2023/06/01 11:41:33;;;;;;;0.50;0.50;;;;;;;;;;5077844;28;20217;-82
2023/06/01 11:43:59;;;;;;;0.53;0.53;;;;;;;;;;5080742;28;20178;-83
2023/06/01 11:46:26;;;;;;;0.40;0.40;;;;;;;;;;5079238;28;20178;-82
2023/06/01 11:49:02;;;;;;;0.50;0.50;;;;;;;;;;5087579;28;20179;-83
2023/06/01 11:51:29;;;;;;;0.40;0.40;;;;;;;;;;5090980;28;20197;-81
2023/06/01 11:53:55;;;;;;;0.50;0.50;;;;;;;;;;5087467;28;20174;-83
2023/06/01 11:56:29;;;;;;;0.50;0.50;;;;;;;;;;5079710;28;20232;-84
2023/06/01 11:58:57;;;;;;;0.60;0.60;;;;;;;;;;5079619;28;20182;-83
2023/06/01 12:01:23;;;;;;;0.50;0.50;;;;;;;;;;5077832;28;20202;-84
2023/06/01 12:03:49;;;;;;;0.55;0.55;;;;;;;;;;5079425;28;20185;-86
2023/06/01 12:06:22;;;;;;;0.40;0.40;;;;;;;;;;5078543;28;20193;-84
2023/06/01 12:08:50;;;;;;;0.50;0.50;;;;;;;;;;5079402;28;20193;-87
2023/06/01 12:11:18;;;;;;;0.50;0.50;;;;;;;;;;5061536;28;20214;-85
2023/06/01 12:13:44;;;;;;;0.40;0.40;;;;;;;;;;5093151;28;20170;-90
2023/06/01 12:16:10;;;;;;;0.50;0.50;;;;;;;;;;5091576;28;20267;-83
2023/06/01 12:18:36;;;;;;;0.52;0.52;;;;;;;;;;5077593;28;20221;-85
2023/06/01 12:21:09;;;;;;;0.50;0.50;;;;;;;;;;5077499;28;20186;-85
2023/06/01 12:23:35;;;;;;;0.60;0.60;;;;;;;;;;5078101;28;20174;-85
2023/06/01 12:26:01;;;;;;;0.50;0.50;;;;;;;;;;5074486;28;20208;-84
2023/06/01 12:28:34;;;;;;;0.40;0.40;;;;;;;;;;5076711;28;20182;-83
2023/06/01 12:31:11;;;;;;;0.50;0.50;;;;;;;;;;5083929;28;20198;-85
2023/06/01 12:33:37;;;;;;;0.50;0.50;;;;;;;;;;5083359;28;20170;-85
2023/06/01 12:36:05;;;;;;;0.60;0.60;;;;;;;;;;5078473;28;20636;-82
2023/06/01 12:38:38;;;;;;;0.57;0.57;;;;;;;;;;5077510;28;20225;-87
2023/06/01 12:41:07;;;;;;;0.60;0.60;;;;;;;;;;5075767;28;20707;-83
2023/06/01 12:43:34;;;;;;;0.50;0.50;;;;;;;;;;5079074;28;20260;-83
2023/06/01 12:46:01;;;;;;;0.45;0.45;;;;;;;;;;5080345;28;20188;-81
2023/06/01 12:48:34;;;;;;;0.60;0.60;;;;;;;;;;5081043;28;20193;-82
2023/06/01 12:51:00;;;;;;;0.60;0.60;;;;;;;;;;5072118;28;20200;-81
2023/06/01 12:53:26;;;;;;;0.60;0.60;;;;;;;;;;5089098;28;20218;-80
2023/06/01 12:55:52;;;;;;;0.50;0.50;;;;;;;;;;5088542;28;20174;-83
2023/06/01 12:58:18;;;;;;;0.52;0.52;;;;;;;;;;5079990;28;20298;-82
2023/06/01 13:00:44;;;;;;;0.50;0.50;;;;;;;;;;5082064;28;20281;-82
2023/06/01 13:03:10;;;;;;;0.50;0.50;;;;;;;;;;5085089;28;20182;-83
2023/06/01 13:05:37;;;;;;;0.50;0.50;;;;;;;;;;5095121;28;20400;-84
2023/06/01 13:08:03;;;;;;;0.50;0.50;;;;;;;;;;5085450;28;20174;-84
2023/06/01 13:10:29;;;;;;;0.60;0.60;;;;;;;;;;5082167;28;20262;-84
2023/06/01 13:12:55;;;;;;;0.50;0.50;;;;;;;;;;5103930;28;20201;-85
2023/06/01 13:15:21;;;;;;;0.50;0.50;;;;;;;;;;5085402;28;20183;-84
2023/06/01 13:17:48;;;;;;;0.60;0.60;;;;;;;;;;5081899;28;20264;-84
2023/06/01 13:20:16;;;;;;;0.30;0.30;;;;;;;;;;5086750;28;20191;-83
2023/06/01 13:22:42;;;;;;;0.53;0.53;;;;;;;;;;5095203;28;20184;-85
2023/06/01 13:25:08;;;;;;;0.40;0.40;;;;;;;;;;5076875;28;20177;-88
2023/06/01 13:27:35;;;;;;;0.50;0.50;;;;;;;;;;5076648;28;20276;-86
2023/06/01 13:30:01;;;;;;;0.50;0.50;;;;;;;;;;5084467;28;20198;-85
2023/06/01 13:32:27;;;;;;;0.52;0.52;;;;;;;;;;5078084;28;20181;-85
2023/06/01 13:34:54;;;;;;;0.60;0.60;;;;;;;;;;5077053;28;20190;-84
2023/06/01 13:37:20;;;;;;;0.50;0.50;;;;;;;;;;5081089;28;20536;-87
2023/06/01 13:39:45;;;;;;;0.60;0.60;;;;;;;;;;5088147;28;20198;-89
2023/06/01 13:42:13;;;;;;;0.60;0.60;;;;;;;;;;5094990;28;20169;-87
2023/06/01 13:44:40;;;;;;;0.40;0.40;;;;;;;;;;5091825;28;20178;-86
2023/06/01 13:47:06;;;;;;;0.55;0.55;;;;;;;;;;5076467;28;20200;-86
2023/06/01 13:49:32;;;;;;;0.50;0.50;;;;;;;;;;5076919;28;20182;-85
2023/06/01 13:51:59;;;;;;;0.40;0.40;;;;;;;;;;5077776;28;20527;-87
2023/06/01 13:54:25;;;;;;;0.45;0.45;;;;;;;;;;5076532;28;20540;-88
2023/06/01 13:56:51;;;;;;;0.45;0.45;;;;;;;;;;5075514;28;20206;-86
2023/06/01 13:59:17;;;;;;;0.50;0.50;;;;;;;;;;5075690;28;20224;-87
2023/06/01 14:01:46;;;;;;;0.43;0.43;;;;;;;;;;5075945;28;20246;-91
2023/06/01 14:04:12;;;;;;;0.40;0.40;;;;;;;;;;5076509;28;20696;-86
2023/06/01 14:06:38;;;;;;;0.50;0.50;;;;;;;;;;5080407;28;20229;-86
2023/06/01 14:09:05;;;;;;;0.40;0.40;;;;;;;;;;5097075;28;20173;-90
2023/06/01 14:11:31;;;;;;;0.50;0.50;;;;;;;;;;5096177;28;20312;-87
2023/06/01 14:13:57;;;;;;;0.30;0.30;;;;;;;;;;5061981;28;20232;-87
2023/06/01 14:16:23;;;;;;;0.38;0.38;;;;;;;;;;5077080;28;20523;-87
2023/06/01 14:18:49;;;;;;;0.40;0.40;;;;;;;;;;5076556;28;20189;-88
2023/06/01 14:21:15;;;;;;;0.37;0.37;;;;;;;;;;5077107;28;20206;-88
2023/06/01 14:23:43;;;;;;;0.60;0.60;;;;;;;;;;5077358;28;20269;-86
2023/06/01 14:26:09;;;;;;;0.43;0.43;;;;;;;;;;5091736;28;20162;-89
2023/06/01 14:28:35;;;;;;;0.30;0.30;;;;;;;;;;5095543;28;20173;-85
2023/06/01 14:31:01;;;;;;;0.40;0.40;;;;;;;;;;5095337;28;20217;-86
2023/06/01 14:33:27;;;;;;;0.37;0.37;;;;;;;;;;5095890;28;20166;-89
2023/06/01 14:35:53;;;;;;;0.30;0.30;;;;;;;;;;5093376;28;20178;-86
2023/06/01 14:38:19;;;;;;;0.50;0.50;;;;;;;;;;5089228;28;20217;-88
2023/06/01 14:40:45;;;;;;;0.30;0.30;;;;;;;;;;5080499;28;20186;-89
2023/06/01 14:43:12;;;;;;;0.40;0.40;;;;;;;;;;5079906;28;20505;-88
2023/06/01 14:45:38;;;;;;;0.30;0.30;;;;;;;;;;5078736;28;20316;-88
2023/06/01 14:48:04;;;;;;;0.30;0.30;;;;;;;;;;5059714;28;20651;-90